Time;durP1;ratioP1;P1;durP2;ratioP2;P2;SDS_P1;SDS_P2;PMS_P1;PMS_P2;Temp;Humidity;BMP_temperature;BMP_pressure;BME280_temperature;BME280_humidity;BME280_pressure;Samples;Min_cycle;Max_cycle;Signal;HPM_P1;HPM_P2
2022/08/27 00:02:10;;;;;;;9.97;9.13;;;19.30;99.90;;;;;;5082173;28;20976;-68
2022/08/27 00:04:39;;;;;;;10.20;9.20;;;19.20;99.90;;;;;;5072360;28;20677;-67
2022/08/27 00:07:08;;;;;;;9.77;8.50;;;19.30;99.90;;;;;;5073451;28;20459;-67
2022/08/27 00:09:35;;;;;;;9.27;8.57;;;19.30;99.90;;;;;;5080881;28;20535;-67
2022/08/27 00:12:05;;;;;;;9.93;9.13;;;19.20;99.90;;;;;;5079512;28;20454;-67
2022/08/27 00:14:33;;;;;;;9.80;8.80;;;19.20;99.90;;;;;;5076731;28;20470;-67
2022/08/27 00:17:00;;;;;;;10.97;9.83;;;19.20;99.90;;;;;;5079945;28;20482;-66
2022/08/27 00:19:27;;;;;;;9.83;9.23;;;19.10;99.90;;;;;;5072484;28;21100;-66
2022/08/27 00:21:55;;;;;;;12.50;8.73;;;19.10;99.90;;;;;;5078708;28;20461;-68
2022/08/27 00:24:23;;;;;;;11.13;9.17;;;19.10;99.90;;;;;;5076093;28;20486;-67
2022/08/27 00:26:52;;;;;;;9.80;8.93;;;19.00;99.90;;;;;;5081047;28;20490;-68
2022/08/27 00:29:19;;;;;;;10.40;8.93;;;19.10;99.90;;;;;;5081563;28;20826;-67
2022/08/27 00:31:47;;;;;;;9.60;8.80;;;19.10;99.90;;;;;;5075734;28;21028;-67
2022/08/27 00:34:13;;;;;;;10.17;9.23;;;19.00;99.90;;;;;;5079699;28;20462;-68
2022/08/27 00:36:42;;;;;;;9.77;9.17;;;19.00;99.90;;;;;;5074335;28;20467;-67
2022/08/27 00:39:10;;;;;;;12.20;9.30;;;19.00;99.90;;;;;;5079158;28;21028;-67
2022/08/27 00:41:37;;;;;;;12.23;9.40;;;19.00;99.90;;;;;;5082768;28;20453;-66
2022/08/27 00:44:06;;;;;;;11.80;9.80;;;19.00;99.90;;;;;;5079865;28;20526;-67
2022/08/27 00:46:36;;;;;;;9.73;9.10;;;18.90;99.90;;;;;;5080316;28;20463;-67
2022/08/27 00:49:08;;;;;;;9.20;8.50;;;18.90;99.90;;;;;;5077130;28;20527;-67
2022/08/27 00:51:36;;;;;;;10.23;9.53;;;18.90;99.90;;;;;;5070993;28;20991;-67
2022/08/27 00:54:07;;;;;;;11.03;10.10;;;18.80;99.90;;;;;;5081069;28;20458;-66
2022/08/27 00:56:43;;;;;;;10.43;9.40;;;18.80;99.90;;;;;;5074748;28;20673;-67
2022/08/27 00:59:13;;;;;;;10.70;9.37;;;18.70;99.90;;;;;;5075673;28;20466;-68
2022/08/27 01:02:17;;;;;;;11.27;10.27;;;18.60;99.90;;;;;;5083063;28;20449;-67
2022/08/27 01:04:31;;;;;;;9.07;8.30;;;18.60;99.90;;;;;;5075935;28;20505;-66
2022/08/27 01:06:58;;;;;;;9.80;9.00;;;18.60;99.90;;;;;;5076191;28;20622;-67
2022/08/27 01:09:25;;;;;;;10.40;9.70;;;18.70;99.90;;;;;;5080788;28;20454;-68
2022/08/27 01:11:57;;;;;;;11.57;10.20;;;18.60;99.90;;;;;;5069629;28;20461;-67
2022/08/27 01:14:25;;;;;;;9.73;8.83;;;18.60;99.90;;;;;;5084250;28;20462;-67
2022/08/27 01:16:54;;;;;;;10.00;9.10;;;18.60;99.90;;;;;;5075636;28;20569;-67
2022/08/27 01:19:30;;;;;;;8.77;8.07;;;18.60;99.90;;;;;;5078080;28;20829;-68
2022/08/27 01:22:05;;;;;;;10.10;8.33;;;18.60;99.90;;;;;;5076618;28;20458;-67
2022/08/27 01:24:37;;;;;;;10.10;9.40;;;18.60;99.90;;;;;;5077735;28;20565;-67
2022/08/27 01:27:08;;;;;;;9.27;8.47;;;18.60;99.90;;;;;;5080017;28;20500;-68
2022/08/27 01:29:37;;;;;;;9.37;8.57;;;18.50;99.90;;;;;;5077179;28;20965;-67
2022/08/27 01:32:11;;;;;;;10.03;8.53;;;18.40;99.90;;;;;;5075714;28;20462;-67
2022/08/27 01:34:38;;;;;;;9.27;8.27;;;18.40;99.90;;;;;;5082932;28;20454;-68
2022/08/27 01:37:06;;;;;;;9.40;8.60;;;18.40;99.90;;;;;;5079053;28;20461;-68
2022/08/27 01:39:38;;;;;;;9.07;8.37;;;18.40;99.90;;;;;;5072611;28;20551;-67
2022/08/27 01:42:08;;;;;;;15.93;8.97;;;18.50;99.90;;;;;;5081256;28;20451;-67
2022/08/27 01:44:44;;;;;;;9.27;8.20;;;18.50;99.90;;;;;;5079848;28;20489;-68
2022/08/27 01:47:11;;;;;;;10.00;9.30;;;18.40;99.90;;;;;;5085317;28;20450;-67
2022/08/27 01:49:38;;;;;;;9.47;8.60;;;18.30;99.90;;;;;;5080383;28;20457;-66
2022/08/27 01:52:05;;;;;;;10.33;9.30;;;18.30;99.90;;;;;;5072224;28;20492;-67
2022/08/27 01:54:32;;;;;;;9.60;9.00;;;18.30;99.90;;;;;;5077907;28;20474;-67
2022/08/27 01:57:00;;;;;;;10.03;9.23;;;18.20;99.90;;;;;;5079717;28;20543;-67
2022/08/27 01:59:27;;;;;;;10.40;9.40;;;18.30;99.90;;;;;;5083948;28;20481;-67
2022/08/27 02:01:55;;;;;;;10.33;8.93;;;18.30;99.90;;;;;;5091059;28;20461;-67
2022/08/27 02:04:22;;;;;;;24.30;9.63;;;18.20;99.90;;;;;;5083477;28;20496;-68
2022/08/27 02:06:49;;;;;;;9.83;9.00;;;18.30;99.90;;;;;;5076710;28;20546;-68
2022/08/27 02:09:16;;;;;;;9.60;8.80;;;18.20;99.90;;;;;;5077323;28;20459;-67
2022/08/27 02:11:43;;;;;;;12.50;9.00;;;18.20;99.90;;;;;;5087047;28;20463;-68
2022/08/27 02:14:12;;;;;;;14.53;9.27;;;18.00;99.90;;;;;;5083202;28;20458;-68
2022/08/27 02:16:39;;;;;;;10.07;9.00;;;18.10;99.90;;;;;;5088757;28;20571;-68
2022/08/27 02:19:07;;;;;;;11.37;10.33;;;18.20;99.90;;;;;;5085487;28;20460;-68
2022/08/27 02:21:34;;;;;;;11.47;9.63;;;18.10;99.90;;;;;;5082488;28;20453;-67
2022/08/27 02:24:01;;;;;;;14.50;9.20;;;18.10;99.90;;;;;;5079901;28;20466;-68
2022/08/27 02:26:28;;;;;;;9.97;9.27;;;18.20;99.90;;;;;;5086316;28;20462;-67
2022/08/27 02:28:55;;;;;;;10.50;9.47;;;18.30;99.90;;;;;;5078715;28;20462;-67
2022/08/27 02:31:24;;;;;;;9.70;8.67;;;18.20;99.90;;;;;;5085967;28;20556;-67
2022/08/27 02:33:52;;;;;;;9.83;8.93;;;18.20;99.90;;;;;;5079414;28;20461;-68
2022/08/27 02:36:21;;;;;;;9.73;9.13;;;18.00;99.90;;;;;;5083058;28;20466;-67
2022/08/27 02:38:48;;;;;;;9.77;8.97;;;18.00;99.90;;;;;;5080854;28;20473;-67
2022/08/27 02:41:15;;;;;;;14.07;9.30;;;18.00;99.90;;;;;;5080525;28;20541;-68
2022/08/27 02:43:42;;;;;;;9.93;9.10;;;18.00;99.90;;;;;;5087678;28;20657;-67
2022/08/27 02:46:10;;;;;;;10.23;9.33;;;18.00;99.90;;;;;;5081251;28;20486;-67
2022/08/27 02:48:40;;;;;;;9.80;9.20;;;18.00;99.90;;;;;;5080634;28;20454;-68
2022/08/27 02:51:07;;;;;;;9.57;8.77;;;18.00;99.90;;;;;;5084342;28;20496;-68
2022/08/27 02:53:36;;;;;;;10.20;9.23;;;18.00;99.90;;;;;;5085118;28;20471;-67
2022/08/27 02:56:04;;;;;;;9.70;9.03;;;18.00;99.90;;;;;;5087742;28;20482;-68
2022/08/27 02:58:32;;;;;;;10.60;9.60;;;18.00;99.90;;;;;;5079024;28;20472;-67
2022/08/27 03:01:00;;;;;;;27.83;12.47;;;18.00;99.90;;;;;;5076464;28;20989;-67
2022/08/27 03:03:28;;;;;;;13.70;9.63;;;18.00;99.90;;;;;;5083115;28;20463;-68
2022/08/27 03:05:59;;;;;;;10.80;9.90;;;17.90;99.90;;;;;;5083368;28;21313;-68
2022/08/27 03:08:26;;;;;;;10.70;9.80;;;17.90;99.90;;;;;;5082842;28;20508;-68
2022/08/27 03:10:55;;;;;;;10.43;9.63;;;18.00;99.90;;;;;;5081329;28;20462;-68
2022/08/27 03:13:24;;;;;;;10.60;9.90;;;18.10;99.90;;;;;;5079419;28;20455;-68
2022/08/27 03:15:51;;;;;;;12.50;10.50;;;18.10;99.90;;;;;;5083446;28;20847;-68
2022/08/27 03:18:19;;;;;;;9.67;8.97;;;18.10;99.90;;;;;;5078399;28;20993;-68
2022/08/27 03:20:49;;;;;;;11.23;10.27;;;18.10;99.90;;;;;;5078402;28;20709;-68
2022/08/27 03:23:20;;;;;;;13.90;10.23;;;18.10;99.90;;;;;;5075838;28;20454;-68
2022/08/27 03:25:51;;;;;;;10.53;9.60;;;18.10;99.90;;;;;;5083459;28;20662;-68
2022/08/27 03:28:19;;;;;;;11.70;9.70;;;18.00;99.90;;;;;;5082287;28;20499;-68
2022/08/27 03:30:50;;;;;;;10.47;9.57;;;18.10;99.90;;;;;;5077382;28;20874;-68
2022/08/27 03:33:18;;;;;;;9.83;9.10;;;18.20;99.90;;;;;;5077128;28;20459;-68
2022/08/27 03:35:46;;;;;;;11.27;10.10;;;18.00;99.90;;;;;;5084216;28;20462;-68
2022/08/27 03:38:14;;;;;;;10.20;9.60;;;18.00;99.90;;;;;;5084661;28;21013;-67
2022/08/27 03:40:44;;;;;;;11.10;10.10;;;18.00;99.90;;;;;;5075755;28;20764;-67
2022/08/27 03:43:14;;;;;;;10.77;9.90;;;18.00;99.90;;;;;;5082602;28;20458;-68
2022/08/27 03:45:44;;;;;;;10.90;10.07;;;18.00;99.90;;;;;;5079631;28;20466;-68
2022/08/27 03:48:12;;;;;;;11.30;10.40;;;18.00;99.90;;;;;;5076244;28;20519;-68
2022/08/27 03:50:41;;;;;;;11.33;10.13;;;18.00;99.90;;;;;;5081822;28;20466;-68
2022/08/27 03:53:09;;;;;;;13.63;9.60;;;17.90;99.90;;;;;;5079304;28;20454;-67
2022/08/27 03:55:36;;;;;;;12.13;9.43;;;17.80;99.90;;;;;;5078562;28;20485;-68
2022/08/27 03:58:05;;;;;;;9.93;9.43;;;17.90;99.90;;;;;;5080811;28;20480;-68
2022/08/27 04:00:31;;;;;;;11.90;10.80;;;17.90;99.90;;;;;;5081713;28;20466;-69
2022/08/27 04:02:58;;;;;;;13.03;9.90;;;17.80;99.90;;;;;;5053338;28;20564;-68
2022/08/27 04:05:25;;;;;;;11.30;10.40;;;17.90;99.90;;;;;;5047011;28;20490;-69
2022/08/27 04:07:52;;;;;;;11.30;10.30;;;18.00;99.90;;;;;;5049271;28;20841;-69
2022/08/27 04:10:20;;;;;;;10.80;9.90;;;18.10;99.90;;;;;;5047834;28;20707;-68
2022/08/27 04:12:48;;;;;;;11.20;10.17;;;18.00;99.90;;;;;;5047959;28;20472;-68
2022/08/27 04:15:16;;;;;;;11.57;10.67;;;18.00;99.90;;;;;;5047372;28;21358;-68
2022/08/27 04:17:43;;;;;;;11.53;10.63;;;18.00;99.90;;;;;;5048635;28;21350;-69
2022/08/27 04:20:10;;;;;;;11.80;10.40;;;18.10;99.90;;;;;;5049384;28;20463;-68
2022/08/27 04:22:38;;;;;;;12.70;11.00;;;18.00;99.90;;;;;;5048598;28;20830;-68
2022/08/27 04:25:06;;;;;;;11.83;10.67;;;18.00;99.90;;;;;;5048852;28;20487;-68
2022/08/27 04:27:34;;;;;;;12.90;11.00;;;18.10;99.90;;;;;;5047421;28;20537;-69
2022/08/27 04:30:02;;;;;;;11.77;10.60;;;18.10;99.90;;;;;;5048679;28;20496;-69
2022/08/27 04:32:30;;;;;;;11.00;10.20;;;18.00;99.90;;;;;;5050394;28;20474;-69
2022/08/27 04:34:59;;;;;;;11.27;10.60;;;18.00;99.90;;;;;;5049420;28;20477;-69
2022/08/27 04:37:29;;;;;;;11.20;10.40;;;18.10;99.90;;;;;;5049754;28;20857;-68
2022/08/27 04:39:56;;;;;;;11.47;10.57;;;18.00;99.90;;;;;;5049883;28;20559;-69
2022/08/27 04:42:23;;;;;;;11.27;10.57;;;18.10;99.90;;;;;;5048883;28;20459;-68
2022/08/27 04:44:52;;;;;;;12.40;11.20;;;18.10;99.90;;;;;;5047850;28;20497;-68
2022/08/27 04:47:19;;;;;;;12.40;11.03;;;18.20;99.90;;;;;;5049958;28;20543;-69
2022/08/27 04:49:48;;;;;;;11.77;10.80;;;18.10;99.90;;;;;;5048887;28;20980;-68
2022/08/27 04:52:15;;;;;;;11.57;10.73;;;18.10;99.90;;;;;;5049876;28;20462;-68
2022/08/27 04:54:42;;;;;;;11.23;10.33;;;18.10;99.90;;;;;;5048755;28;20482;-68
2022/08/27 04:57:09;;;;;;;12.07;11.07;;;18.10;99.90;;;;;;5049518;28;20984;-69
2022/08/27 04:59:37;;;;;;;12.37;11.37;;;18.20;99.90;;;;;;5045145;28;20513;-68
2022/08/27 05:02:08;;;;;;;17.60;11.60;;;18.30;99.90;;;;;;5049227;28;20621;-68
2022/08/27 05:04:36;;;;;;;12.50;11.53;;;18.30;99.90;;;;;;5048773;28;20463;-68
2022/08/27 05:07:05;;;;;;;11.50;10.60;;;18.20;99.90;;;;;;5049694;28;21198;-68
2022/08/27 05:09:33;;;;;;;15.20;11.50;;;18.10;99.90;;;;;;5046743;28;20481;-68
2022/08/27 05:12:00;;;;;;;11.77;10.97;;;18.00;99.90;;;;;;5049658;28;20478;-69
2022/08/27 05:14:29;;;;;;;11.63;10.90;;;17.90;99.90;;;;;;5048122;28;21076;-68
2022/08/27 05:16:57;;;;;;;10.97;10.17;;;17.90;99.90;;;;;;5047875;28;20502;-69
2022/08/27 05:19:24;;;;;;;11.63;10.80;;;17.90;99.90;;;;;;5047987;28;21044;-68
2022/08/27 05:21:52;;;;;;;12.70;11.47;;;17.90;99.90;;;;;;5047773;28;20466;-69
2022/08/27 05:24:21;;;;;;;13.00;11.93;;;17.80;99.90;;;;;;5049759;28;22674;-68
2022/08/27 05:26:49;;;;;;;11.87;10.83;;;17.80;99.90;;;;;;5049365;28;20497;-68
2022/08/27 05:29:16;;;;;;;12.63;11.63;;;17.80;99.90;;;;;;5047930;28;20459;-68
2022/08/27 05:31:46;;;;;;;12.20;11.40;;;17.90;99.90;;;;;;5047312;28;20467;-67
2022/08/27 05:34:13;;;;;;;12.53;11.40;;;17.90;99.90;;;;;;5048570;28;20954;-69
2022/08/27 05:36:40;;;;;;;12.10;11.37;;;17.90;99.90;;;;;;5049543;28;20481;-67
2022/08/27 05:39:07;;;;;;;12.60;11.90;;;17.90;99.90;;;;;;5048801;28;20459;-68
2022/08/27 05:41:36;;;;;;;12.57;11.30;;;17.90;99.90;;;;;;5048337;28;20797;-69
2022/08/27 05:44:06;;;;;;;12.90;11.70;;;17.90;99.90;;;;;;5048587;28;20491;-68
2022/08/27 05:46:35;;;;;;;11.30;10.60;;;18.00;99.90;;;;;;5048244;28;20501;-69
2022/08/27 05:49:01;;;;;;;11.60;10.90;;;18.00;99.90;;;;;;5046856;28;20524;-68
2022/08/27 05:51:31;;;;;;;12.60;11.77;;;17.90;99.90;;;;;;5049059;28;20456;-68
2022/08/27 05:54:01;;;;;;;13.80;12.43;;;17.90;99.90;;;;;;5049139;28;20459;-68
2022/08/27 05:56:30;;;;;;;12.30;11.60;;;18.00;99.90;;;;;;5048397;28;20506;-69
2022/08/27 06:01:46;;;;;;;11.60;11.10;;;18.00;99.90;;;;;;5045642;28;20545;-69
2022/08/27 06:04:14;;;;;;;12.50;11.60;;;18.00;99.90;;;;;;5047043;28;20467;-68
2022/08/27 06:06:43;;;;;;;12.87;11.73;;;18.10;99.90;;;;;;5072856;28;20486;-68
2022/08/27 06:09:12;;;;;;;13.27;12.00;;;18.10;99.90;;;;;;5078239;28;20552;-68
2022/08/27 06:11:39;;;;;;;12.83;11.87;;;18.10;99.90;;;;;;5070362;28;20461;-67
2022/08/27 06:14:08;;;;;;;13.20;12.50;;;18.20;99.90;;;;;;5044845;28;20470;-69
2022/08/27 06:16:37;;;;;;;13.50;12.53;;;18.10;99.90;;;;;;5043560;28;20525;-68
2022/08/27 06:19:04;;;;;;;12.10;11.53;;;18.10;99.90;;;;;;5043307;28;20494;-68
2022/08/27 06:21:31;;;;;;;13.77;12.80;;;18.00;99.90;;;;;;5044370;28;20779;-68
2022/08/27 06:23:58;;;;;;;12.93;11.90;;;18.00;99.90;;;;;;5045445;28;20474;-68
2022/08/27 06:26:26;;;;;;;12.30;11.57;;;17.90;99.90;;;;;;5045506;28;20491;-68
2022/08/27 06:28:54;;;;;;;13.23;12.00;;;17.90;99.90;;;;;;5046068;28;20837;-68
2022/08/27 06:31:23;;;;;;;12.83;11.80;;;17.90;99.90;;;;;;5045128;28;20454;-70
2022/08/27 06:33:51;;;;;;;12.27;11.27;;;18.00;99.90;;;;;;5045677;28;21444;-70
2022/08/27 06:36:22;;;;;;;13.57;12.20;;;18.00;99.90;;;;;;5046077;28;20467;-69
2022/08/27 06:38:49;;;;;;;12.83;12.13;;;18.00;99.90;;;;;;5044662;28;21042;-68
2022/08/27 06:41:22;;;;;;;14.20;12.43;;;18.10;99.90;;;;;;5045604;28;21536;-68
2022/08/27 06:43:49;;;;;;;12.53;11.47;;;18.10;99.90;;;;;;5045186;28;21284;-67
2022/08/27 06:46:18;;;;;;;12.77;12.07;;;18.30;99.90;;;;;;5049103;28;20509;-68
2022/08/27 06:48:47;;;;;;;14.00;12.90;;;18.30;99.90;;;;;;5048681;28;20458;-69
2022/08/27 06:51:16;;;;;;;13.23;11.90;;;18.30;99.90;;;;;;5051237;28;20485;-69
2022/08/27 06:53:45;;;;;;;12.97;12.00;;;18.20;99.90;;;;;;5049262;28;20471;-69
2022/08/27 06:56:13;;;;;;;13.83;12.80;;;18.30;99.90;;;;;;5051326;28;21561;-68
2022/08/27 06:58:40;;;;;;;12.43;11.73;;;18.40;99.90;;;;;;5050850;28;20459;-69
2022/08/27 07:01:13;;;;;;;12.60;11.90;;;18.40;99.90;;;;;;5051308;28;20481;-69
2022/08/27 07:03:40;;;;;;;12.70;11.70;;;18.40;99.90;;;;;;5050410;28;20901;-68
2022/08/27 07:06:09;;;;;;;13.00;12.00;;;18.50;99.90;;;;;;5048687;28;20782;-68
2022/08/27 07:08:36;;;;;;;15.50;11.60;;;18.60;99.90;;;;;;5050955;28;20550;-69
2022/08/27 07:11:03;;;;;;;12.10;11.50;;;18.40;99.90;;;;;;5051978;28;20531;-68
2022/08/27 07:13:30;;;;;;;12.80;11.93;;;18.20;99.90;;;;;;5050819;28;20467;-68
2022/08/27 07:15:57;;;;;;;12.87;11.87;;;18.10;99.90;;;;;;5040496;28;20490;-69
2022/08/27 07:18:24;;;;;;;12.53;11.53;;;18.10;99.90;;;;;;5049685;28;20543;-69
2022/08/27 07:20:53;;;;;;;12.60;11.80;;;18.20;99.90;;;;;;5050015;28;20497;-68
2022/08/27 07:23:21;;;;;;;13.30;12.50;;;18.20;99.90;;;;;;5050638;28;20475;-68
2022/08/27 07:25:48;;;;;;;13.00;12.10;;;18.20;99.90;;;;;;5049155;28;20541;-68
2022/08/27 07:28:14;;;;;;;15.30;11.93;;;18.30;99.90;;;;;;5048898;28;20467;-68
2022/08/27 07:30:42;;;;;;;12.80;11.93;;;18.20;99.90;;;;;;5047684;28;20469;-68
2022/08/27 07:33:09;;;;;;;14.53;12.70;;;18.30;99.90;;;;;;5049597;28;21085;-68
2022/08/27 07:35:36;;;;;;;12.33;11.60;;;18.30;99.90;;;;;;5049837;28;21169;-69
2022/08/27 07:38:03;;;;;;;12.43;11.73;;;18.30;99.90;;;;;;5050914;28;20485;-68
2022/08/27 07:40:31;;;;;;;13.37;12.37;;;18.40;99.90;;;;;;5050682;28;20520;-69
2022/08/27 07:45:45;;;;;;;12.30;11.50;;;18.50;99.90;;;;;;5050321;28;20462;-68
2022/08/27 07:48:12;;;;;;;13.23;12.17;;;18.50;99.90;;;;;;5050035;28;20473;-70
2022/08/27 07:50:39;;;;;;;12.90;12.03;;;18.50;99.90;;;;;;5050175;28;20474;-68
2022/08/27 07:53:07;;;;;;;12.30;11.60;;;18.40;99.90;;;;;;5051946;28;20459;-68
2022/08/27 07:55:38;;;;;;;12.40;11.50;;;18.50;99.90;;;;;;5080006;28;20469;-68
2022/08/27 07:58:06;;;;;;;12.87;12.07;;;18.40;99.90;;;;;;5064551;28;20463;-68
2022/08/27 08:00:33;;;;;;;12.47;11.53;;;18.40;99.90;;;;;;5050432;28;20978;-68
2022/08/27 08:03:00;;;;;;;11.70;11.10;;;18.40;99.90;;;;;;5050453;28;20587;-68
2022/08/27 08:05:28;;;;;;;13.33;12.00;;;18.70;99.90;;;;;;5048477;28;21178;-68
2022/08/27 08:07:54;;;;;;;12.30;11.50;;;18.80;99.90;;;;;;5049581;28;21289;-68
2022/08/27 08:10:22;;;;;;;11.53;10.93;;;18.80;99.90;;;;;;5049818;28;20463;-68
2022/08/27 08:12:50;;;;;;;12.83;11.93;;;18.70;99.90;;;;;;5050590;28;20569;-69
2022/08/27 08:15:18;;;;;;;13.30;12.30;;;18.80;99.90;;;;;;5049767;28;20478;-70
2022/08/27 08:17:46;;;;;;;13.20;12.03;;;18.80;99.90;;;;;;5049601;28;20545;-70
2022/08/27 08:20:14;;;;;;;12.97;11.90;;;18.90;99.90;;;;;;5047500;28;20469;-70
2022/08/27 08:22:43;;;;;;;13.00;11.80;;;18.90;99.90;;;;;;5049565;28;20770;-68
2022/08/27 08:25:12;;;;;;;16.57;11.97;;;18.90;99.90;;;;;;5049969;28;20525;-69
2022/08/27 08:27:40;;;;;;;14.53;11.10;;;18.90;99.90;;;;;;5049880;28;20913;-70
2022/08/27 08:30:10;;;;;;;11.83;11.13;;;18.80;99.90;;;;;;5048750;28;20807;-70
2022/08/27 08:32:37;;;;;;;11.43;10.77;;;18.60;99.90;;;;;;5049847;28;20536;-70
2022/08/27 08:35:06;;;;;;;12.60;11.50;;;18.60;99.90;;;;;;5049741;28;20470;-69
2022/08/27 08:37:34;;;;;;;11.93;10.83;;;18.60;99.90;;;;;;5047986;28;20557;-69
2022/08/27 08:40:04;;;;;;;15.60;11.90;;;18.40;99.90;;;;;;5067198;28;20959;-68
2022/08/27 08:42:45;;;;;;;11.57;10.97;;;18.50;99.90;;;;;;5075150;28;20833;-70
2022/08/27 08:45:17;;;;;;;14.33;11.80;;;18.50;99.90;;;;;;5073791;28;20462;-67
2022/08/27 08:47:48;;;;;;;11.30;10.47;;;18.60;99.90;;;;;;5055678;28;20501;-68
2022/08/27 08:50:21;;;;;;;12.47;11.10;;;18.60;99.90;;;;;;5055760;28;20458;-69
2022/08/27 08:52:54;;;;;;;16.57;11.63;;;18.70;99.90;;;;;;5075360;28;20454;-67
2022/08/27 08:55:33;;;;;;;11.63;10.93;;;18.70;99.90;;;;;;5049534;28;20561;-68
2022/08/27 08:58:11;;;;;;;12.00;11.30;;;18.80;99.90;;;;;;5049862;28;20466;-68
2022/08/27 09:00:43;;;;;;;12.40;11.70;;;19.00;99.90;;;;;;5049827;28;21134;-68
2022/08/27 09:03:12;;;;;;;12.77;11.97;;;19.20;99.90;;;;;;5048794;28;20466;-67
2022/08/27 09:05:48;;;;;;;13.43;11.63;;;19.40;99.90;;;;;;5048307;28;21004;-68
2022/08/27 09:08:20;;;;;;;12.90;11.80;;;19.40;99.90;;;;;;5073357;28;20540;-68
2022/08/27 09:10:55;;;;;;;13.70;12.40;;;19.30;99.90;;;;;;5060443;28;20565;-68
2022/08/27 09:13:25;;;;;;;12.60;11.60;;;19.10;99.90;;;;;;5049665;28;20450;-70
2022/08/27 09:15:56;;;;;;;13.20;11.97;;;19.00;99.90;;;;;;5050206;28;20514;-68
2022/08/27 09:18:23;;;;;;;12.70;11.70;;;19.00;99.90;;;;;;5048950;28;20964;-68
2022/08/27 09:20:54;;;;;;;12.43;11.53;;;19.20;99.90;;;;;;5049022;28;20467;-68
2022/08/27 09:23:26;;;;;;;12.57;11.80;;;19.40;99.90;;;;;;5048582;28;20926;-69
2022/08/27 09:25:53;;;;;;;13.30;12.50;;;19.30;99.90;;;;;;5048233;28;20459;-68
2022/08/27 09:31:14;;;;;;;12.93;12.03;;;19.10;99.90;;;;;;5048674;28;20969;-67
2022/08/27 09:33:41;;;;;;;13.03;12.03;;;19.20;99.90;;;;;;5048988;28;20474;-69
2022/08/27 09:36:11;;;;;;;14.03;12.63;;;19.20;99.90;;;;;;5048728;28;20565;-71
2022/08/27 09:38:42;;;;;;;12.90;12.00;;;19.20;99.90;;;;;;5048247;28;20510;-68
2022/08/27 09:41:17;;;;;;;13.13;12.23;;;19.30;99.90;;;;;;5048725;28;20940;-67
2022/08/27 09:43:44;;;;;;;14.90;13.70;;;19.40;99.90;;;;;;5048404;28;21004;-68
2022/08/27 09:46:20;;;;;;;14.43;12.17;;;19.50;99.90;;;;;;5048535;28;21103;-68
2022/08/27 09:48:47;;;;;;;13.97;13.07;;;19.50;99.90;;;;;;5048155;28;20881;-68
2022/08/27 09:51:18;;;;;;;20.03;11.90;;;19.60;99.90;;;;;;5048197;28;20462;-67
2022/08/27 09:53:49;;;;;;;13.70;12.67;;;19.60;99.90;;;;;;5049354;28;20490;-68
2022/08/27 09:56:24;;;;;;;12.73;11.80;;;19.60;99.90;;;;;;5048408;28;20489;-68
2022/08/27 09:58:55;;;;;;;12.70;11.90;;;19.80;99.90;;;;;;5048860;28;20466;-68
2022/08/27 10:01:25;;;;;;;13.80;12.60;;;20.10;99.90;;;;;;5048562;28;20505;-68
2022/08/27 10:04:08;;;;;;;12.97;12.23;;;20.30;99.90;;;;;;5048910;28;20493;-67
2022/08/27 10:06:34;;;;;;;13.17;12.10;;;20.60;99.90;;;;;;5048073;28;20861;-70
2022/08/27 10:09:18;;;;;;;13.37;12.50;;;20.70;99.90;;;;;;5048135;28;20553;-69
2022/08/27 10:11:50;;;;;;;13.07;12.23;;;20.70;99.90;;;;;;5047488;28;20467;-68
2022/08/27 10:14:23;;;;;;;22.53;12.60;;;20.90;99.90;;;;;;5048425;28;20478;-67
2022/08/27 10:17:02;;;;;;;14.47;13.53;;;20.90;99.90;;;;;;5048729;28;21120;-67
2022/08/27 10:19:40;;;;;;;13.87;12.60;;;21.20;99.90;;;;;;5049400;28;20457;-69
2022/08/27 10:22:14;;;;;;;13.30;12.40;;;21.50;99.90;;;;;;5052849;28;20885;-65
2022/08/27 10:24:54;;;;;;;13.30;12.33;;;21.80;99.90;;;;;;5052964;28;20969;-67
2022/08/27 10:27:29;;;;;;;13.73;12.90;;;21.80;99.90;;;;;;5052611;28;20482;-67
2022/08/27 10:30:03;;;;;;;13.43;12.63;;;21.80;99.90;;;;;;5052445;28;20500;-68
2022/08/27 10:32:46;;;;;;;13.60;12.63;;;21.90;99.90;;;;;;5052732;28;20558;-68
2022/08/27 10:35:19;;;;;;;14.23;13.20;;;22.10;99.90;;;;;;5051454;28;20462;-66
2022/08/27 10:37:58;;;;;;;14.43;13.27;;;22.20;99.90;;;;;;5051519;28;20996;-69
2022/08/27 10:40:31;;;;;;;14.63;13.33;;;22.40;99.90;;;;;;5051890;28;22393;-66
2022/08/27 10:43:15;;;;;;;14.77;13.77;;;22.80;99.90;;;;;;5052394;28;20880;-66
2022/08/27 10:45:50;;;;;;;13.57;12.87;;;23.20;99.90;;;;;;5051689;28;20470;-67
2022/08/27 10:48:28;;;;;;;14.60;13.27;;;23.40;99.90;;;;;;5052457;28;20493;-69
2022/08/27 10:51:02;;;;;;;14.47;13.53;;;23.80;99.90;;;;;;5052125;28;20458;-68
2022/08/27 10:53:37;;;;;;;14.70;13.50;;;24.00;99.90;;;;;;5051824;28;20962;-67
2022/08/27 10:56:13;;;;;;;13.93;13.20;;;24.00;99.90;;;;;;5051859;28;20493;-67
2022/08/27 10:58:50;;;;;;;15.57;14.47;;;23.50;99.90;;;;;;5051497;28;21616;-67
2022/08/27 11:01:25;;;;;;;14.00;13.00;;;23.10;99.90;;;;;;5051662;28;20458;-66
2022/08/27 11:03:59;;;;;;;14.00;13.20;;;23.40;99.90;;;;;;5051467;28;20509;-66
2022/08/27 11:06:30;;;;;;;14.97;13.63;;;23.70;99.90;;;;;;5075021;28;20553;-65
2022/08/27 11:09:01;;;;;;;14.50;13.57;;;23.80;99.90;;;;;;5076801;28;20600;-67
2022/08/27 11:11:37;;;;;;;15.10;14.00;;;24.10;99.90;;;;;;5079947;28;20462;-66
2022/08/27 11:14:09;;;;;;;15.37;13.97;;;24.10;99.90;;;;;;5052767;28;20473;-67
2022/08/27 11:16:43;;;;;;;14.87;13.60;;;23.80;99.90;;;;;;5050744;28;20578;-67
2022/08/27 11:19:17;;;;;;;14.90;13.83;;;23.70;99.90;;;;;;5051415;28;20463;-66
2022/08/27 11:21:50;;;;;;;14.60;13.37;;;23.70;99.90;;;;;;5051990;28;20450;-69
2022/08/27 11:24:25;;;;;;;14.13;13.23;;;23.80;99.90;;;;;;5051417;28;20473;-68
2022/08/27 11:26:56;;;;;;;14.93;13.83;;;23.90;99.90;;;;;;5050461;28;21042;-67
2022/08/27 11:29:30;;;;;;;14.63;13.50;;;24.10;99.90;;;;;;5051326;28;20782;-66
2022/08/27 11:32:06;;;;;;;13.90;13.20;;;24.00;99.90;;;;;;5050582;28;20463;-69
2022/08/27 11:34:42;;;;;;;14.23;13.43;;;24.30;99.90;;;;;;5051678;28;20948;-67
2022/08/27 11:37:22;;;;;;;15.33;13.43;;;24.10;99.90;;;;;;5051117;28;20463;-66
2022/08/27 11:40:13;;;;;;;15.60;14.37;;;24.40;99.90;;;;;;5050645;28;20988;-68
2022/08/27 11:42:43;;;;;;;15.30;14.20;;;24.70;99.90;;;;;;5051396;28;20550;-68
2022/08/27 11:45:16;;;;;;;15.17;14.03;;;24.80;99.90;;;;;;5050351;28;21141;-68
2022/08/27 11:47:52;;;;;;;16.37;15.10;;;24.80;99.90;;;;;;5051025;28;20497;-66
2022/08/27 11:50:23;;;;;;;14.80;13.70;;;24.80;99.90;;;;;;5050859;28;20950;-68
2022/08/27 11:53:00;;;;;;;14.40;13.60;;;25.20;99.90;;;;;;5051469;28;20463;-67
2022/08/27 11:55:31;;;;;;;14.73;13.93;;;25.50;99.90;;;;;;5050967;28;20528;-65
2022/08/27 11:58:10;;;;;;;15.03;13.97;;;26.00;99.90;;;;;;5050839;28;23061;-67
2022/08/27 12:00:40;;;;;;;14.73;13.87;;;26.20;99.90;;;;;;5051114;28;20473;-66
2022/08/27 12:03:09;;;;;;;14.73;13.83;;;25.30;99.90;;;;;;5049151;28;20463;-66
2022/08/27 12:05:43;;;;;;;15.43;14.43;;;24.80;99.90;;;;;;5049677;28;20466;-66
2022/08/27 12:08:17;;;;;;;15.00;13.70;;;24.50;99.90;;;;;;5051070;28;20499;-67
2022/08/27 12:10:58;;;;;;;14.70;13.77;;;24.00;99.90;;;;;;5050681;28;20473;-68
2022/08/27 12:13:34;;;;;;;14.50;13.60;;;24.10;99.90;;;;;;5051138;28;20475;-69
2022/08/27 12:16:11;;;;;;;15.07;13.63;;;24.50;99.90;;;;;;5039978;28;20959;-69
2022/08/27 12:18:56;;;;;;;14.43;13.47;;;24.70;99.90;;;;;;5029917;28;20478;-67
2022/08/27 12:21:35;;;;;;;14.80;13.70;;;24.50;99.90;;;;;;5029675;28;20458;-66
2022/08/27 12:24:13;;;;;;;14.10;13.10;;;24.40;99.90;;;;;;5029738;28;20985;-67
2022/08/27 12:26:42;;;;;;;13.60;12.70;;;24.40;99.90;;;;;;5030207;28;20837;-67
2022/08/27 12:29:27;;;;;;;13.53;12.73;;;24.30;99.90;;;;;;5030050;28;20571;-67
2022/08/27 12:32:00;;;;;;;13.50;12.90;;;24.70;99.90;;;;;;5030630;28;20463;-66
2022/08/27 12:34:29;;;;;;;14.50;13.50;;;24.80;99.90;;;;;;5029709;28;21004;-66
2022/08/27 12:36:57;;;;;;;14.50;13.70;;;25.10;99.90;;;;;;5029185;28;20566;-66
2022/08/27 12:39:28;;;;;;;19.77;13.13;;;25.30;99.90;;;;;;5029672;28;20508;-67
2022/08/27 12:41:55;;;;;;;13.90;13.00;;;25.30;99.90;;;;;;5030465;28;20505;-68
2022/08/27 12:44:27;;;;;;;13.43;12.63;;;24.70;99.90;;;;;;5029935;28;20467;-66
2022/08/27 12:47:00;;;;;;;14.23;12.80;;;24.60;99.90;;;;;;5029782;28;20467;-65
2022/08/27 12:49:32;;;;;;;14.17;12.73;;;24.60;99.90;;;;;;5028899;28;20502;-66
2022/08/27 12:52:05;;;;;;;14.33;13.10;;;24.70;99.90;;;;;;5029806;28;20467;-67
2022/08/27 12:54:42;;;;;;;13.90;13.17;;;24.20;99.90;;;;;;5030132;28;20464;-67